Time;durP1;ratioP1;P1;durP2;ratioP2;P2;SDS_P1;SDS_P2;PMS_P1;PMS_P2;Temp;Humidity;BMP_temperature;BMP_pressure;BME280_temperature;BME280_humidity;BME280_pressure;Samples;Min_cycle;Max_cycle;Signal;HPM_P1;HPM_P2
2022/07/27 00:00:32;;;;;;;7.60;3.03;;;;;;;;;;5031600;28;20405;-66
2022/07/27 00:02:58;;;;;;;8.17;3.50;;;;;;;;;;5029402;28;20025;-66
2022/07/27 00:05:23;;;;;;;11.90;3.20;;;;;;;;;;5031336;28;20466;-67
2022/07/27 00:07:48;;;;;;;7.70;3.10;;;;;;;;;;5034327;28;20029;-66
2022/07/27 00:10:14;;;;;;;8.13;3.30;;;;;;;;;;5034452;28;20021;-66
2022/07/27 00:12:39;;;;;;;10.97;3.80;;;;;;;;;;5031546;28;20432;-66
2022/07/27 00:15:05;;;;;;;10.17;3.43;;;;;;;;;;5030415;28;20033;-67
2022/07/27 00:17:31;;;;;;;10.77;3.63;;;;;;;;;;5031619;28;20466;-66
2022/07/27 00:19:56;;;;;;;8.50;3.20;;;;;;;;;;5030169;28;20041;-66
2022/07/27 00:22:21;;;;;;;7.33;3.30;;;;;;;;;;5031731;28;20041;-67
2022/07/27 00:24:47;;;;;;;7.57;3.20;;;;;;;;;;5031624;28;20449;-66
2022/07/27 00:27:12;;;;;;;8.10;3.40;;;;;;;;;;5031276;28;20033;-66
2022/07/27 00:29:37;;;;;;;10.77;3.63;;;;;;;;;;5033269;28;20386;-66
2022/07/27 00:32:03;;;;;;;9.20;4.13;;;;;;;;;;5031224;28;20034;-67
2022/07/27 00:34:28;;;;;;;8.53;3.50;;;;;;;;;;5029131;28;20053;-66
2022/07/27 00:36:53;;;;;;;9.20;3.77;;;;;;;;;;5030715;28;20037;-66
2022/07/27 00:39:18;;;;;;;8.77;3.80;;;;;;;;;;5030549;28;20025;-66
2022/07/27 00:41:44;;;;;;;12.17;4.00;;;;;;;;;;5030921;28;20045;-66
2022/07/27 00:44:11;;;;;;;11.77;3.97;;;;;;;;;;5029651;28;20021;-67
2022/07/27 00:46:36;;;;;;;7.87;4.07;;;;;;;;;;5031381;28;20518;-66
2022/07/27 00:49:02;;;;;;;9.73;3.90;;;;;;;;;;5030855;28;20037;-67
2022/07/27 00:51:27;;;;;;;13.13;4.57;;;;;;;;;;5032385;28;20044;-67
2022/07/27 00:53:52;;;;;;;8.90;4.70;;;;;;;;;;5029078;28;20067;-67
2022/07/27 00:56:18;;;;;;;9.23;4.10;;;;;;;;;;5030976;28;20063;-67
2022/07/27 00:58:46;;;;;;;8.40;4.23;;;;;;;;;;5029770;28;20026;-67
2022/07/27 01:01:11;;;;;;;9.20;4.40;;;;;;;;;;5031364;28;20026;-67
2022/07/27 01:03:36;;;;;;;11.60;4.70;;;;;;;;;;5032279;28;20112;-67
2022/07/27 01:06:02;;;;;;;9.60;4.37;;;;;;;;;;5030056;28;20466;-67
2022/07/27 01:08:27;;;;;;;10.70;4.50;;;;;;;;;;5032032;28;20533;-66
2022/07/27 01:10:53;;;;;;;13.53;4.40;;;;;;;;;;5034718;28;20028;-67
2022/07/27 01:13:19;;;;;;;9.93;4.40;;;;;;;;;;5030306;28;20045;-67
2022/07/27 01:15:44;;;;;;;8.80;4.13;;;;;;;;;;5033483;28;20393;-66
2022/07/27 01:18:24;;;;;;;9.27;3.90;;;;;;;;;;5030362;28;20619;-67
2022/07/27 01:20:49;;;;;;;12.00;4.00;;;;;;;;;;5030746;28;20048;-67
2022/07/27 01:23:14;;;;;;;9.17;4.13;;;;;;;;;;5032088;28;20029;-67
2022/07/27 01:25:40;;;;;;;12.40;4.00;;;;;;;;;;5033814;28;20057;-67
2022/07/27 01:28:05;;;;;;;10.57;4.20;;;;;;;;;;5033777;28;20026;-67
2022/07/27 01:30:30;;;;;;;9.17;4.47;;;;;;;;;;5034297;28;20100;-67
2022/07/27 01:33:03;;;;;;;12.20;4.80;;;;;;;;;;5034878;28;20547;-66
2022/07/27 01:35:28;;;;;;;9.63;5.07;;;;;;;;;;5035428;28;20021;-66
2022/07/27 01:37:54;;;;;;;10.50;4.73;;;;;;;;;;5034649;28;20541;-66
2022/07/27 01:40:19;;;;;;;11.27;5.60;;;;;;;;;;5036860;28;20025;-67
2022/07/27 01:42:45;;;;;;;8.97;4.67;;;;;;;;;;5029805;28;20460;-67
2022/07/27 01:45:10;;;;;;;11.13;5.30;;;;;;;;;;5033486;28;20029;-67
2022/07/27 01:47:35;;;;;;;12.90;5.10;;;;;;;;;;5036754;28;20475;-67
2022/07/27 01:50:01;;;;;;;12.17;5.37;;;;;;;;;;5033614;28;20480;-67
2022/07/27 01:52:26;;;;;;;8.30;4.30;;;;;;;;;;5030979;28;20037;-66
2022/07/27 01:54:51;;;;;;;8.87;4.87;;;;;;;;;;5031473;28;20026;-67
2022/07/27 01:57:16;;;;;;;11.47;4.40;;;;;;;;;;5036563;28;20033;-67
2022/07/27 01:59:41;;;;;;;15.90;4.57;;;;;;;;;;5033950;28;20037;-67
2022/07/27 02:02:07;;;;;;;10.53;4.67;;;;;;;;;;5033755;28;20505;-67
2022/07/27 02:04:32;;;;;;;9.93;4.60;;;;;;;;;;5033116;28;20032;-67
2022/07/27 02:06:57;;;;;;;11.20;4.70;;;;;;;;;;5031584;28;20028;-67
2022/07/27 02:09:24;;;;;;;12.60;4.93;;;;;;;;;;5031432;28;20097;-67
2022/07/27 02:14:33;;;;;;;15.20;4.90;;;;;;;;;;5033365;28;20032;-67
2022/07/27 02:16:58;;;;;;;9.80;4.90;;;;;;;;;;5033572;28;20037;-67
2022/07/27 02:19:24;;;;;;;10.77;4.90;;;;;;;;;;5033480;28;20037;-67
2022/07/27 02:21:49;;;;;;;12.63;4.63;;;;;;;;;;5033742;28;20029;-67
2022/07/27 02:24:14;;;;;;;9.57;4.87;;;;;;;;;;5031644;28;20028;-67
2022/07/27 02:26:39;;;;;;;10.90;4.60;;;;;;;;;;5032992;28;20014;-67
2022/07/27 02:29:05;;;;;;;11.93;4.70;;;;;;;;;;5032972;28;20029;-66
2022/07/27 02:31:30;;;;;;;11.97;5.57;;;;;;;;;;5031992;28;20013;-66
2022/07/27 02:33:55;;;;;;;6.80;4.00;;;;;;;;;;5032823;28;20398;-67
2022/07/27 02:36:20;;;;;;;9.47;4.13;;;;;;;;;;5031184;28;20104;-67
2022/07/27 02:38:46;;;;;;;10.60;4.20;;;;;;;;;;5031092;28;20033;-67
2022/07/27 02:41:11;;;;;;;10.63;4.23;;;;;;;;;;5033173;28;20022;-66
2022/07/27 02:43:36;;;;;;;13.40;4.50;;;;;;;;;;5033493;28;20141;-67
2022/07/27 02:46:01;;;;;;;8.63;3.73;;;;;;;;;;5033304;28;20053;-66
2022/07/27 02:48:26;;;;;;;12.83;4.80;;;;;;;;;;5032569;28;20024;-66
2022/07/27 02:50:52;;;;;;;16.47;5.13;;;;;;;;;;5033114;28;20446;-66
2022/07/27 02:53:17;;;;;;;13.43;4.73;;;;;;;;;;5032518;28;20039;-66
2022/07/27 02:55:42;;;;;;;8.77;4.07;;;;;;;;;;5033000;28;20028;-66
2022/07/27 02:58:07;;;;;;;10.90;4.70;;;;;;;;;;5032000;28;20021;-67
2022/07/27 03:00:33;;;;;;;11.90;4.40;;;;;;;;;;5031065;28;20029;-66
2022/07/27 03:02:58;;;;;;;9.87;4.30;;;;;;;;;;5032277;28;20033;-66
2022/07/27 03:05:23;;;;;;;10.30;4.70;;;;;;;;;;5031813;28;20024;-66
2022/07/27 03:07:48;;;;;;;14.20;4.50;;;;;;;;;;5032442;28;20037;-67
2022/07/27 03:10:13;;;;;;;11.57;4.40;;;;;;;;;;5031185;28;20034;-66
2022/07/27 03:12:39;;;;;;;11.10;4.10;;;;;;;;;;5032538;28;20108;-66
2022/07/27 03:15:04;;;;;;;10.47;4.40;;;;;;;;;;5030973;28;20131;-66
2022/07/27 03:17:29;;;;;;;10.17;4.20;;;;;;;;;;5032915;28;20084;-66
2022/07/27 03:19:54;;;;;;;8.97;4.40;;;;;;;;;;5031277;28;20053;-66
2022/07/27 03:22:20;;;;;;;8.40;4.13;;;;;;;;;;5032616;28;20049;-66
2022/07/27 03:24:45;;;;;;;11.27;4.30;;;;;;;;;;5032025;28;20030;-66
2022/07/27 03:27:10;;;;;;;13.27;4.80;;;;;;;;;;5031530;28;20034;-66
2022/07/27 03:29:35;;;;;;;11.83;3.93;;;;;;;;;;5032212;28;20426;-66
2022/07/27 03:32:01;;;;;;;11.10;4.47;;;;;;;;;;5031699;28;20042;-66
2022/07/27 03:34:26;;;;;;;12.93;4.80;;;;;;;;;;5031505;28;20033;-67
2022/07/27 03:36:51;;;;;;;13.40;5.07;;;;;;;;;;5035501;28;20030;-67
2022/07/27 03:39:16;;;;;;;15.83;5.73;;;;;;;;;;5031707;28;20044;-67
2022/07/27 03:41:42;;;;;;;13.90;5.33;;;;;;;;;;5032131;28;20029;-67
2022/07/27 03:44:07;;;;;;;11.67;5.33;;;;;;;;;;5030957;28;20025;-66
2022/07/27 03:46:32;;;;;;;13.03;4.87;;;;;;;;;;5031234;28;20056;-66
2022/07/27 03:48:57;;;;;;;13.13;5.40;;;;;;;;;;5031462;28;20026;-66
2022/07/27 03:51:23;;;;;;;12.57;5.23;;;;;;;;;;5030820;28;20045;-66
2022/07/27 03:53:48;;;;;;;12.70;5.23;;;;;;;;;;5031495;28;20116;-66
2022/07/27 03:56:13;;;;;;;16.37;5.13;;;;;;;;;;5030700;28;20033;-66
2022/07/27 03:58:38;;;;;;;15.63;5.03;;;;;;;;;;5030696;28;20037;-66
2022/07/27 04:01:04;;;;;;;11.53;4.67;;;;;;;;;;5031341;28;20022;-66
2022/07/27 04:03:29;;;;;;;9.87;4.80;;;;;;;;;;5030207;28;20029;-66
2022/07/27 04:05:54;;;;;;;9.93;4.43;;;;;;;;;;5031849;28;20476;-66
2022/07/27 04:08:20;;;;;;;10.87;4.80;;;;;;;;;;5030738;28;20529;-66
2022/07/27 04:10:46;;;;;;;12.30;4.90;;;;;;;;;;5031549;28;20101;-66
2022/07/27 04:13:12;;;;;;;9.57;4.53;;;;;;;;;;5030016;28;20017;-66
2022/07/27 04:15:37;;;;;;;13.30;4.50;;;;;;;;;;5030957;28;20067;-67
2022/07/27 04:18:02;;;;;;;14.23;4.57;;;;;;;;;;5030259;28;20025;-66
2022/07/27 04:20:28;;;;;;;15.27;4.93;;;;;;;;;;5031306;28;20017;-67
2022/07/27 04:22:53;;;;;;;12.47;5.17;;;;;;;;;;5031193;28;20040;-67
2022/07/27 04:25:19;;;;;;;9.83;4.70;;;;;;;;;;5030988;28;20113;-67
2022/07/27 04:27:44;;;;;;;11.00;4.93;;;;;;;;;;5030004;28;20411;-66
2022/07/27 04:30:09;;;;;;;13.67;5.00;;;;;;;;;;5030631;28;20395;-66
2022/07/27 04:32:35;;;;;;;12.87;4.57;;;;;;;;;;5031509;28;20027;-66
2022/07/27 04:35:01;;;;;;;12.33;4.97;;;;;;;;;;5031799;28;20028;-67
2022/07/27 04:37:26;;;;;;;11.17;4.43;;;;;;;;;;5031091;28;20021;-66
2022/07/27 04:39:55;;;;;;;11.03;4.70;;;;;;;;;;5030427;28;20135;-66
2022/07/27 04:42:20;;;;;;;12.63;4.20;;;;;;;;;;5031109;28;20182;-67
2022/07/27 04:44:46;;;;;;;9.00;4.13;;;;;;;;;;5031009;28;20100;-66
2022/07/27 04:47:11;;;;;;;8.73;4.73;;;;;;;;;;5031190;28;20041;-67
2022/07/27 04:49:36;;;;;;;9.77;3.83;;;;;;;;;;5030880;28;20037;-66
2022/07/27 04:52:02;;;;;;;11.53;4.50;;;;;;;;;;5030163;28;20037;-66
2022/07/27 04:54:27;;;;;;;10.13;4.17;;;;;;;;;;5031732;28;20040;-66
2022/07/27 04:56:52;;;;;;;11.10;3.63;;;;;;;;;;5031301;28;20381;-66
2022/07/27 04:59:17;;;;;;;10.67;4.20;;;;;;;;;;5031140;28;20381;-66
2022/07/27 05:01:43;;;;;;;14.27;3.70;;;;;;;;;;5040498;28;20040;-66
2022/07/27 05:04:08;;;;;;;13.30;3.33;;;;;;;;;;5034535;28;20556;-67
2022/07/27 05:06:33;;;;;;;12.17;4.17;;;;;;;;;;5033742;28;20018;-67
2022/07/27 05:08:58;;;;;;;9.47;3.17;;;;;;;;;;5034578;28;20370;-67
2022/07/27 05:11:24;;;;;;;15.07;4.00;;;;;;;;;;5033696;28;20033;-67
2022/07/27 05:13:49;;;;;;;9.50;3.30;;;;;;;;;;5034746;28;20105;-66
2022/07/27 05:16:14;;;;;;;7.93;3.40;;;;;;;;;;5034650;28;20489;-66
2022/07/27 05:18:39;;;;;;;7.53;3.20;;;;;;;;;;5034691;28;20032;-67
2022/07/27 05:21:05;;;;;;;11.87;3.13;;;;;;;;;;5033305;28;20044;-67
2022/07/27 05:23:31;;;;;;;7.30;2.80;;;;;;;;;;5032998;28;20018;-67
2022/07/27 05:25:56;;;;;;;8.20;3.00;;;;;;;;;;5034792;28;20385;-66
2022/07/27 05:28:21;;;;;;;10.07;3.35;;;;;;;;;;5034652;28;20703;-67
2022/07/27 05:30:46;;;;;;;7.40;3.05;;;;;;;;;;5034373;28;20021;-67
2022/07/27 05:33:12;;;;;;;8.87;3.27;;;;;;;;;;5033646;28;20026;-66
2022/07/27 05:35:37;;;;;;;8.73;2.87;;;;;;;;;;5034310;28;20028;-67
2022/07/27 05:38:02;;;;;;;8.35;2.80;;;;;;;;;;5033671;28;20026;-67
2022/07/27 05:40:28;;;;;;;8.33;3.00;;;;;;;;;;5035682;28;20030;-67
2022/07/27 05:42:53;;;;;;;8.53;3.07;;;;;;;;;;5032531;28;20018;-67
2022/07/27 05:45:18;;;;;;;11.88;3.15;;;;;;;;;;5035604;28;20029;-67
2022/07/27 05:47:43;;;;;;;7.68;2.80;;;;;;;;;;5034089;28;20039;-67
2022/07/27 05:50:09;;;;;;;9.38;2.80;;;;;;;;;;5033038;28;20457;-66
2022/07/27 05:52:34;;;;;;;5.80;2.30;;;;;;;;;;5033002;28;20528;-66
2022/07/27 05:54:59;;;;;;;7.05;2.22;;;;;;;;;;5031795;28;20493;-66
2022/07/27 05:57:25;;;;;;;5.93;2.28;;;;;;;;;;5035336;28;20499;-68
2022/07/27 05:59:53;;;;;;;6.20;2.10;;;;;;;;;;5031170;28;20112;-67
2022/07/27 06:02:18;;;;;;;7.70;2.20;;;;;;;;;;5031946;28;20032;-67
2022/07/27 06:04:44;;;;;;;7.88;2.20;;;;;;;;;;5032611;28;20057;-67
2022/07/27 06:09:53;;;;;;;8.77;1.98;;;;;;;;;;5032276;28;20125;-66
2022/07/27 06:12:18;;;;;;;6.68;1.83;;;;;;;;;;5031388;28;20555;-66
2022/07/27 06:14:43;;;;;;;7.28;2.13;;;;;;;;;;5029428;28;20441;-67
2022/07/27 06:17:09;;;;;;;9.55;2.25;;;;;;;;;;5032241;28;20397;-67
2022/07/27 06:19:38;;;;;;;8.88;1.75;;;;;;;;;;5032363;28;20500;-67
2022/07/27 06:22:03;;;;;;;6.10;1.75;;;;;;;;;;5031900;28;20033;-68
2022/07/27 06:24:29;;;;;;;7.05;1.90;;;;;;;;;;5032504;28;20487;-67
2022/07/27 06:26:54;;;;;;;7.25;2.13;;;;;;;;;;5032349;28;20026;-66
2022/07/27 06:29:19;;;;;;;6.93;1.80;;;;;;;;;;5032101;28;20017;-68
2022/07/27 06:31:45;;;;;;;7.90;1.70;;;;;;;;;;5031679;28;20034;-68
2022/07/27 06:34:10;;;;;;;9.02;2.10;;;;;;;;;;5034597;28;20033;-67
2022/07/27 06:36:38;;;;;;;6.93;1.70;;;;;;;;;;5031264;28;20048;-68
2022/07/27 06:39:03;;;;;;;5.88;1.60;;;;;;;;;;5030559;28;20087;-68
2022/07/27 06:41:29;;;;;;;6.80;1.60;;;;;;;;;;5029460;28;20034;-67
2022/07/27 06:43:54;;;;;;;6.13;1.60;;;;;;;;;;5032000;28;20017;-67
2022/07/27 06:46:19;;;;;;;6.97;1.40;;;;;;;;;;5029645;28;20020;-67
2022/07/27 06:48:45;;;;;;;7.43;1.20;;;;;;;;;;5029200;28;20432;-68
2022/07/27 06:51:10;;;;;;;6.47;1.42;;;;;;;;;;4972362;28;1684520;-68
2022/07/27 06:53:35;;;;;;;6.35;1.10;;;;;;;;;;5031368;28;20307;-67
2022/07/27 06:56:02;;;;;;;8.15;1.30;;;;;;;;;;5031648;28;20500;-67
2022/07/27 06:58:29;;;;;;;4.07;1.02;;;;;;;;;;5032936;28;20116;-68
2022/07/27 07:00:54;;;;;;;5.40;1.40;;;;;;;;;;5031228;28;20106;-68
2022/07/27 07:03:20;;;;;;;6.18;1.35;;;;;;;;;;5031644;28;20037;-66
2022/07/27 07:05:45;;;;;;;7.05;1.05;;;;;;;;;;5030852;28;20429;-67
2022/07/27 07:08:12;;;;;;;5.05;1.20;;;;;;;;;;5031687;28;20029;-67
2022/07/27 07:10:38;;;;;;;4.43;1.20;;;;;;;;;;5031740;28;20108;-67
2022/07/27 07:13:04;;;;;;;5.35;0.90;;;;;;;;;;5031291;28;20057;-66
2022/07/27 07:15:29;;;;;;;6.18;1.30;;;;;;;;;;5030576;28;20057;-64
2022/07/27 07:17:54;;;;;;;7.03;1.05;;;;;;;;;;5033090;28;20064;-65
2022/07/27 07:20:20;;;;;;;6.07;1.00;;;;;;;;;;5030765;28;20040;-65
2022/07/27 07:22:45;;;;;;;4.93;1.00;;;;;;;;;;5022557;28;20017;-64
2022/07/27 07:25:10;;;;;;;4.57;1.00;;;;;;;;;;5032437;28;20022;-64
2022/07/27 07:27:36;;;;;;;4.50;0.82;;;;;;;;;;5032790;28;20013;-65
2022/07/27 07:30:01;;;;;;;5.68;1.00;;;;;;;;;;5031136;28;20096;-66
2022/07/27 07:32:27;;;;;;;4.60;0.93;;;;;;;;;;5030870;28;20067;-65
2022/07/27 07:34:52;;;;;;;4.57;1.00;;;;;;;;;;5030530;28;20386;-65
2022/07/27 07:37:18;;;;;;;6.85;1.10;;;;;;;;;;5033775;28;20464;-65
2022/07/27 07:39:44;;;;;;;5.18;1.13;;;;;;;;;;5031732;28;20064;-67
2022/07/27 07:42:09;;;;;;;4.13;0.82;;;;;;;;;;5031542;28;20076;-68
2022/07/27 07:44:35;;;;;;;7.40;1.13;;;;;;;;;;5030404;28;20040;-68
2022/07/27 07:47:00;;;;;;;4.78;0.90;;;;;;;;;;5030342;28;20378;-67
2022/07/27 07:49:25;;;;;;;4.63;0.73;;;;;;;;;;5031746;28;20495;-67
2022/07/27 07:51:50;;;;;;;7.78;1.13;;;;;;;;;;5032149;28;20490;-67
2022/07/27 07:54:16;;;;;;;7.70;1.25;;;;;;;;;;5031380;28;20037;-67
2022/07/27 07:56:41;;;;;;;6.78;1.05;;;;;;;;;;5031122;28;20032;-66
2022/07/27 07:59:06;;;;;;;3.83;0.82;;;;;;;;;;5031685;28;20112;-65
2022/07/27 08:01:32;;;;;;;5.35;0.90;;;;;;;;;;5031904;28;20053;-65
2022/07/27 08:03:57;;;;;;;5.53;0.90;;;;;;;;;;5031220;28;20018;-65
2022/07/27 08:06:22;;;;;;;3.75;0.90;;;;;;;;;;5031561;28;20025;-65
2022/07/27 08:08:47;;;;;;;6.68;0.90;;;;;;;;;;5031298;28;20427;-65
2022/07/27 08:11:13;;;;;;;4.95;1.00;;;;;;;;;;5031298;28;20021;-65
2022/07/27 08:13:38;;;;;;;5.43;0.93;;;;;;;;;;5031238;28;20064;-66
2022/07/27 08:16:03;;;;;;;6.63;1.10;;;;;;;;;;5031667;28;20108;-65
2022/07/27 08:18:28;;;;;;;5.30;1.02;;;;;;;;;;5031126;28;20504;-65
2022/07/27 08:20:54;;;;;;;7.68;1.20;;;;;;;;;;5031195;28;20488;-65
2022/07/27 08:23:19;;;;;;;7.60;1.15;;;;;;;;;;5028825;28;20029;-65
2022/07/27 08:25:44;;;;;;;6.35;0.93;;;;;;;;;;5029513;28;20100;-65
2022/07/27 08:28:10;;;;;;;4.75;0.93;;;;;;;;;;5035163;28;20025;-65
2022/07/27 08:30:35;;;;;;;4.03;0.82;;;;;;;;;;5030669;28;20014;-65
2022/07/27 08:33:02;;;;;;;6.05;0.90;;;;;;;;;;5030997;28;20018;-66
2022/07/27 08:35:28;;;;;;;6.70;1.00;;;;;;;;;;5031105;28;20108;-66
2022/07/27 08:37:54;;;;;;;6.03;1.00;;;;;;;;;;5030657;28;20109;-66
2022/07/27 08:40:19;;;;;;;5.15;1.00;;;;;;;;;;5030352;28;20043;-65
2022/07/27 08:42:45;;;;;;;4.32;0.88;;;;;;;;;;5034838;28;20048;-65
2022/07/27 08:45:11;;;;;;;4.07;0.90;;;;;;;;;;5036608;28;20439;-65
2022/07/27 08:47:38;;;;;;;6.10;1.13;;;;;;;;;;5029930;28;20071;-65
2022/07/27 08:50:03;;;;;;;5.72;1.00;;;;;;;;;;5030048;28;20049;-65
2022/07/27 08:52:28;;;;;;;3.83;0.90;;;;;;;;;;5027927;28;20501;-65
2022/07/27 08:54:54;;;;;;;6.70;1.02;;;;;;;;;;5027188;28;20022;-65
2022/07/27 08:57:20;;;;;;;5.65;1.08;;;;;;;;;;5029823;28;20135;-66
2022/07/27 08:59:45;;;;;;;4.55;0.90;;;;;;;;;;5030641;28;20457;-65
2022/07/27 09:02:13;;;;;;;5.93;0.90;;;;;;;;;;5029871;28;20030;-65
2022/07/27 09:04:38;;;;;;;2.97;0.85;;;;;;;;;;5030696;28;20033;-66
2022/07/27 09:07:04;;;;;;;7.07;1.00;;;;;;;;;;5028249;28;20021;-66
2022/07/27 09:09:41;;;;;;;4.60;0.80;;;;;;;;;;5032283;28;20029;-66
2022/07/27 09:12:07;;;;;;;5.45;1.13;;;;;;;;;;5029153;28;20367;-67
2022/07/27 09:14:34;;;;;;;5.80;0.90;;;;;;;;;;5025883;28;20033;-66
2022/07/27 09:17:17;;;;;;;4.32;0.80;;;;;;;;;;5028647;28;20037;-66
2022/07/27 09:19:56;;;;;;;4.57;0.85;;;;;;;;;;5028180;28;20056;-66
2022/07/27 09:22:40;;;;;;;6.05;0.80;;;;;;;;;;5028314;28;20032;-66
2022/07/27 09:25:06;;;;;;;8.55;1.25;;;;;;;;;;5027873;28;20074;-66
2022/07/27 09:27:31;;;;;;;4.20;1.00;;;;;;;;;;5029576;28;20018;-66
2022/07/27 09:30:04;;;;;;;4.50;1.00;;;;;;;;;;5029429;28;20037;-66
2022/07/27 09:32:29;;;;;;;6.55;0.90;;;;;;;;;;5028530;28;20486;-66
2022/07/27 09:34:55;;;;;;;5.85;1.05;;;;;;;;;;5029463;28;20040;-66
2022/07/27 09:37:24;;;;;;;3.75;0.90;;;;;;;;;;5030047;28;20612;-66
2022/07/27 09:39:49;;;;;;;3.60;0.73;;;;;;;;;;5028004;28;20033;-66
2022/07/27 09:42:15;;;;;;;2.30;0.63;;;;;;;;;;5029410;28;20048;-67
2022/07/27 09:44:42;;;;;;;4.15;0.95;;;;;;;;;;5028250;28;20025;-67
2022/07/27 09:47:25;;;;;;;5.70;0.90;;;;;;;;;;5033597;28;20017;-66
2022/07/27 09:49:51;;;;;;;4.72;1.00;;;;;;;;;;5031597;28;20033;-65
2022/07/27 09:52:23;;;;;;;5.97;1.17;;;;;;;;;;5032397;28;20124;-65
2022/07/27 09:54:49;;;;;;;4.63;1.00;;;;;;;;;;5031601;28;20045;-66
2022/07/27 09:57:14;;;;;;;4.93;1.10;;;;;;;;;;5031390;28;20104;-65
2022/07/27 09:59:39;;;;;;;8.75;1.00;;;;;;;;;;5033318;28;20104;-65
2022/07/27 10:02:05;;;;;;;5.95;1.10;;;;;;;;;;5032500;28;20025;-66
2022/07/27 10:04:31;;;;;;;4.10;0.93;;;;;;;;;;5032617;28;20514;-66
2022/07/27 10:06:57;;;;;;;4.00;1.00;;;;;;;;;;5031671;28;20026;-65
2022/07/27 10:09:22;;;;;;;5.20;0.80;;;;;;;;;;5032671;28;20013;-65
2022/07/27 10:11:48;;;;;;;6.45;1.00;;;;;;;;;;5032761;28;20025;-66
2022/07/27 10:14:13;;;;;;;5.80;1.10;;;;;;;;;;5030636;28;20482;-66
2022/07/27 10:16:39;;;;;;;5.45;0.93;;;;;;;;;;5033480;28;20017;-66
2022/07/27 10:19:12;;;;;;;4.65;1.13;;;;;;;;;;5031796;28;20079;-66
2022/07/27 10:21:39;;;;;;;7.03;1.10;;;;;;;;;;5031646;28;20025;-66
2022/07/27 10:24:06;;;;;;;5.40;1.10;;;;;;;;;;5031040;28;20021;-65
2022/07/27 10:26:33;;;;;;;5.70;1.08;;;;;;;;;;5032397;28;20076;-66
2022/07/27 10:28:58;;;;;;;5.05;1.35;;;;;;;;;;5029752;28;20032;-65
2022/07/27 10:31:35;;;;;;;6.88;1.13;;;;;;;;;;5031661;28;20022;-66
2022/07/27 10:34:02;;;;;;;4.00;1.00;;;;;;;;;;5031148;28;20389;-65
2022/07/27 10:36:27;;;;;;;4.60;1.15;;;;;;;;;;5030868;28;20022;-66
2022/07/27 10:38:56;;;;;;;4.38;1.10;;;;;;;;;;5036231;28;20036;-65
2022/07/27 10:41:21;;;;;;;5.88;1.27;;;;;;;;;;5033273;28;20093;-66
2022/07/27 10:43:46;;;;;;;7.88;1.25;;;;;;;;;;5028855;28;20014;-66
2022/07/27 10:46:17;;;;;;;6.15;1.27;;;;;;;;;;5031557;28;20029;-65
2022/07/27 10:48:43;;;;;;;6.80;1.25;;;;;;;;;;5031273;28;20026;-65
2022/07/27 10:51:08;;;;;;;4.55;1.10;;;;;;;;;;5031310;28;20034;-66
2022/07/27 10:53:38;;;;;;;7.35;1.13;;;;;;;;;;5031535;28;20033;-66
2022/07/27 10:56:04;;;;;;;7.25;1.25;;;;;;;;;;5031230;28;20454;-65
2022/07/27 10:58:29;;;;;;;6.35;1.00;;;;;;;;;;5032392;28;20512;-66
2022/07/27 11:00:54;;;;;;;6.50;0.95;;;;;;;;;;5032393;28;20057;-66
2022/07/27 11:03:22;;;;;;;4.15;1.00;;;;;;;;;;5033370;28;20117;-66
2022/07/27 11:05:54;;;;;;;3.67;1.05;;;;;;;;;;5032216;28;20028;-66
2022/07/27 11:08:26;;;;;;;5.65;1.00;;;;;;;;;;5032957;28;20473;-66
2022/07/27 11:10:52;;;;;;;5.20;1.10;;;;;;;;;;5032911;28;20029;-66
2022/07/27 11:13:18;;;;;;;5.13;1.00;;;;;;;;;;5031657;28;20071;-66
2022/07/27 11:15:53;;;;;;;3.97;0.93;;;;;;;;;;5032566;28;20558;-65
2022/07/27 11:18:23;;;;;;;4.40;1.00;;;;;;;;;;5032392;28;20021;-66
2022/07/27 11:20:48;;;;;;;4.50;1.10;;;;;;;;;;5032717;28;20120;-66
2022/07/27 11:23:17;;;;;;;5.80;1.00;;;;;;;;;;5032119;28;20355;-66
2022/07/27 11:25:56;;;;;;;3.28;0.88;;;;;;;;;;5033028;28;20032;-66
2022/07/27 11:28:26;;;;;;;5.10;0.90;;;;;;;;;;5032201;28;20029;-66
2022/07/27 11:30:52;;;;;;;7.78;0.93;;;;;;;;;;5032639;28;20029;-66
2022/07/27 11:33:17;;;;;;;4.55;0.90;;;;;;;;;;5032152;28;20043;-65
2022/07/27 11:35:52;;;;;;;5.20;0.90;;;;;;;;;;5032345;28;20426;-66
2022/07/27 11:38:18;;;;;;;4.03;1.00;;;;;;;;;;5032104;28;20144;-66
2022/07/27 11:40:47;;;;;;;4.90;0.90;;;;;;;;;;5032663;28;20485;-66
2022/07/27 11:43:13;;;;;;;4.47;1.00;;;;;;;;;;5031611;28;20045;-66
2022/07/27 11:45:41;;;;;;;4.55;1.00;;;;;;;;;;5032291;28;20049;-66
2022/07/27 11:48:09;;;;;;;4.82;0.90;;;;;;;;;;5032151;28;20458;-67
2022/07/27 11:50:34;;;;;;;3.05;0.80;;;;;;;;;;5030560;28;20032;-67
2022/07/27 11:52:59;;;;;;;4.57;0.95;;;;;;;;;;5031478;28;20045;-66
2022/07/27 11:55:25;;;;;;;5.50;1.10;;;;;;;;;;5031729;28;20056;-66
2022/07/27 11:57:50;;;;;;;5.63;1.00;;;;;;;;;;5031771;28;20030;-67
2022/07/27 12:00:15;;;;;;;5.40;1.10;;;;;;;;;;5031738;28;20013;-67
2022/07/27 12:02:48;;;;;;;4.38;0.82;;;;;;;;;;5031727;28;20021;-66
2022/07/27 12:05:13;;;;;;;3.72;1.10;;;;;;;;;;5031624;28;20099;-66
2022/07/27 12:07:40;;;;;;;5.93;1.30;;;;;;;;;;5030167;28;20057;-67
2022/07/27 12:10:06;;;;;;;4.05;1.17;;;;;;;;;;5032752;28;20018;-66
2022/07/27 12:12:32;;;;;;;4.47;1.20;;;;;;;;;;5031345;28;20032;-66
2022/07/27 12:15:00;;;;;;;3.47;0.93;;;;;;;;;;5031339;28;20048;-66
2022/07/27 12:17:29;;;;;;;9.23;1.35;;;;;;;;;;5031261;28;20026;-66
2022/07/27 12:19:55;;;;;;;6.43;1.30;;;;;;;;;;5032261;28;20115;-66
2022/07/27 12:22:28;;;;;;;4.28;1.00;;;;;;;;;;5034264;28;20025;-66
2022/07/27 12:24:53;;;;;;;4.93;1.00;;;;;;;;;;5031329;28;20026;-66
2022/07/27 12:27:20;;;;;;;5.43;1.38;;;;;;;;;;5033419;28;20216;-66
2022/07/27 12:29:54;;;;;;;8.88;1.55;;;;;;;;;;5030701;28;20033;-66
2022/07/27 12:32:20;;;;;;;5.03;1.10;;;;;;;;;;5031441;28;20112;-66
2022/07/27 12:34:45;;;;;;;4.78;1.00;;;;;;;;;;5035559;28;20111;-66
2022/07/27 12:37:11;;;;;;;6.60;1.30;;;;;;;;;;5031435;28;20029;-66
2022/07/27 12:39:36;;;;;;;5.80;1.15;;;;;;;;;;5032794;28;20094;-66
2022/07/27 12:42:03;;;;;;;7.68;1.10;;;;;;;;;;5030988;28;20025;-66
2022/07/27 12:44:35;;;;;;;4.22;1.20;;;;;;;;;;5030848;28;20083;-67
2022/07/27 12:47:39;;;;;;;3.33;1.00;;;;;;;;;;5031343;28;20029;-67
2022/07/27 12:49:59;;;;;;;4.32;1.15;;;;;;;;;;5030534;28;20504;-67
2022/07/27 12:52:24;;;;;;;3.90;1.10;;;;;;;;;;5030987;28;20544;-67
2022/07/27 12:54:49;;;;;;;6.88;1.38;;;;;;;;;;5030565;28;20037;-67
2022/07/27 12:57:15;;;;;;;4.85;1.15;;;;;;;;;;5030992;28;20056;-67
2022/07/27 12:59:41;;;;;;;5.63;1.15;;;;;;;;;;5028588;28;20099;-66
2022/07/27 13:02:06;;;;;;;5.28;0.90;;;;;;;;;;5026471;28;20034;-67
2022/07/27 13:04:32;;;;;;;5.55;1.00;;;;;;;;;;5028529;28;20378;-67
2022/07/27 13:06:57;;;;;;;5.65;1.30;;;;;;;;;;5030066;28;20025;-66
2022/07/27 13:09:22;;;;;;;14.38;2.60;;;;;;;;;;5029861;28;20171;-66
2022/07/27 13:11:47;;;;;;;7.50;0.90;;;;;;;;;;5031007;28;20094;-67
2022/07/27 13:14:12;;;;;;;4.07;1.10;;;;;;;;;;5030537;28;20021;-67
2022/07/27 13:16:38;;;;;;;5.35;1.17;;;;;;;;;;5029195;28;20554;-67
2022/07/27 13:19:03;;;;;;;4.47;1.08;;;;;;;;;;5032870;28;20049;-66
2022/07/27 13:21:28;;;;;;;7.13;1.00;;;;;;;;;;5033717;28;20021;-67
2022/07/27 13:23:53;;;;;;;4.22;1.00;;;;;;;;;;5034581;28;20018;-67
2022/07/27 13:26:19;;;;;;;4.00;0.90;;;;;;;;;;5035058;28;20025;-67
2022/07/27 13:28:46;;;;;;;5.95;1.10;;;;;;;;;;5025899;28;20026;-66
2022/07/27 13:31:12;;;;;;;4.65;1.40;;;;;;;;;;5033956;28;20520;-66
2022/07/27 13:33:37;;;;;;;6.03;1.17;;;;;;;;;;5018247;28;20026;-66
2022/07/27 13:36:03;;;;;;;5.30;1.00;;;;;;;;;;5014757;28;20520;-67
2022/07/27 13:38:29;;;;;;;5.57;1.00;;;;;;;;;;5018078;28;20036;-67
2022/07/27 13:40:54;;;;;;;3.45;0.80;;;;;;;;;;5019117;28;20017;-67
2022/07/27 13:43:19;;;;;;;2.90;0.70;;;;;;;;;;5016624;28;20060;-66
2022/07/27 13:45:45;;;;;;;6.75;1.00;;;;;;;;;;5029458;28;20009;-66
2022/07/27 13:48:10;;;;;;;3.47;0.80;;;;;;;;;;5031616;28;20440;-66
2022/07/27 13:50:36;;;;;;;4.20;0.80;;;;;;;;;;5034765;28;20039;-66
2022/07/27 13:53:01;;;;;;;4.13;0.80;;;;;;;;;;5026953;28;20025;-66
2022/07/27 13:55:26;;;;;;;4.53;0.75;;;;;;;;;;5028258;28;20126;-66
2022/07/27 13:57:51;;;;;;;3.47;0.70;;;;;;;;;;5025458;28;20037;-66
2022/07/27 14:00:17;;;;;;;2.17;0.63;;;;;;;;;;5018597;28;20022;-67
2022/07/27 14:02:43;;;;;;;3.50;0.90;;;;;;;;;;5031056;28;20112;-66
2022/07/27 14:05:09;;;;;;;4.50;0.88;;;;;;;;;;5034408;28;20017;-66
2022/07/27 14:07:34;;;;;;;3.53;0.70;;;;;;;;;;5033200;28;20021;-66
2022/07/27 14:12:43;;;;;;;3.40;0.80;;;;;;;;;;5033520;28;20497;-66
2022/07/27 14:15:09;;;;;;;4.97;1.23;;;;;;;;;;5033579;28;20026;-66
2022/07/27 14:17:36;;;;;;;5.20;1.13;;;;;;;;;;5032782;28;20035;-66
2022/07/27 14:20:01;;;;;;;3.78;0.80;;;;;;;;;;5031796;28;20033;-66
2022/07/27 14:22:27;;;;;;;2.45;0.77;;;;;;;;;;5032585;28;20029;-66
2022/07/27 14:24:52;;;;;;;3.63;0.80;;;;;;;;;;5032559;28;20028;-66
2022/07/27 14:27:17;;;;;;;2.40;0.60;;;;;;;;;;5032882;28;20109;-66
2022/07/27 14:29:42;;;;;;;3.67;0.90;;;;;;;;;;5036820;28;20024;-66
2022/07/27 14:32:08;;;;;;;2.15;0.60;;;;;;;;;;5033600;28;20485;-66
2022/07/27 14:34:33;;;;;;;2.90;0.70;;;;;;;;;;5032930;28;20454;-66
2022/07/27 14:36:58;;;;;;;3.53;0.90;;;;;;;;;;5032941;28;20402;-66
2022/07/27 14:39:23;;;;;;;2.78;0.80;;;;;;;;;;5032185;28;20052;-66
2022/07/27 14:41:49;;;;;;;3.13;0.90;;;;;;;;;;5032061;28;20039;-66